Ave Maria Segundo — 3389 — position and weather

sailwx.info

Track history (hours):
 
Tides and Currents Weather Stations Pressure Air Temp Water Temp Dewpoint Dewpoint Depression Visibility Wind Speed Wind Dir Waves Ship Positions

Ave Maria Segundo

Last reported at 2017-Sep-11 18:51 UTC. Time now 2017-Sep-20 18:36 UTC.
Position N 28°52' W 013°32'.
Warning: this ship's position is 8 days out of date.

Length 24 m; draft 0.3 m.

MMSI: 224156290.

Date/timePositionNaut miles runAvg speedWind from/ knotsBaromVisibWave heightAir tempDewpointWater temp
2017-Sep-11 18:51N 28°52' W 013°32'3 7.6
2017-Sep-11 18:28N 28°55' W 013°32'4 7.7
2017-Sep-11 18:00N 28°58' W 013°32'0 0.0
2017-Sep-11 08:29N 28°58' W 013°32'0 0.0
2017-Sep-11 07:59N 28°58' W 013°32'0 0.0
2017-Sep-11 07:29N 28°58' W 013°32'1 2.5
2017-Sep-11 06:59N 28°57' W 013°32'4 8.1
2017-Sep-11 06:26N 28°55' W 013°37'2 4.4
2017-Sep-11 05:56N 28°54' W 013°39'0 0.6
2017-Sep-11 05:30N 28°54' W 013°39'0 0.7
2017-Sep-11 05:00N 28°54' W 013°40'1 0.8
2017-Sep-11 03:46N 28°54' W 013°39'1 1.6
2017-Sep-11 03:02N 28°53' W 013°39'0 0.6
2017-Sep-11 02:57N 28°53' W 013°39'0 0.6
2017-Sep-11 02:24N 28°53' W 013°39'0 0.5
2017-Sep-11 01:50N 28°54' W 013°39'0 0.4
2017-Sep-11 01:28N 28°54' W 013°39'1 0.9
2017-Sep-11 00:23N 28°54' W 013°41'0 1.0
2017-Sep-10 23:59N 28°54' W 013°40'1 1.1
2017-Sep-10 23:24N 28°53' W 013°40'0 0.5
2017-Sep-10 22:39N 28°54' W 013°40'0 0.6
2017-Sep-10 22:29N 28°54' W 013°40'0 0.6
2017-Sep-10 22:00N 28°54' W 013°40'3 5.9
2017-Sep-10 21:28N 28°55' W 013°36'2 5.3
2017-Sep-10 21:00N 28°56' W 013°34'3 5.4
2017-Sep-10 20:30N 28°58' W 013°32'0 0.0
2017-Sep-10 20:00N 28°58' W 013°32'0 0.0
2017-Sep-10 11:45N 28°58' W 013°32'0 0.0
2017-Sep-09 08:04N 28°58' W 013°32'0 0.0
2017-Sep-09 08:00N 28°58' W 013°32'0 0.0
2017-Sep-08 12:07N 28°58' W 013°32'0 0.0
2017-Sep-08 12:00N 28°58' W 013°32'0 0.0
2017-Sep-08 11:08N 28°58' W 013°32'0 0.0
2017-Sep-08 11:00N 28°58' W 013°32'0 0.0
2017-Sep-08 10:30N 28°58' W 013°32'0 0.0
2017-Sep-08 10:00N 28°58' W 013°32'0 0.0
2017-Sep-08 09:30N 28°58' W 013°32'0 0.0
2017-Sep-08 09:00N 28°58' W 013°32'0 0.0
2017-Sep-08 08:30N 28°58' W 013°32'0 0.0
2017-Sep-08 08:00N 28°58' W 013°32'0 0.0
2017-Sep-08 07:30N 28°58' W 013°32'0 0.0
2017-Sep-08 06:59N 28°58' W 013°32'0 0.0
2017-Sep-08 06:30N 28°58' W 013°32'0 0.0
2017-Sep-08 06:00N 28°58' W 013°32'0 0.0
2017-Sep-08 05:28N 28°58' W 013°32'0 0.0
2017-Sep-08 04:58N 28°58' W 013°32'0 0.0
2017-Sep-08 04:29N 28°58' W 013°32'0 0.0
2017-Sep-08 03:59N 28°58' W 013°32'0 0.0
2017-Sep-08 03:30N 28°58' W 013°32'0 0.0
2017-Sep-08 02:59N 28°58' W 013°32'0 0.0
2017-Sep-08 02:28N 28°58' W 013°32'1 1.7
2017-Sep-08 01:58N 28°57' W 013°32'3 6.1
2017-Sep-08 01:30N 28°55' W 013°35'1 2.9
2017-Sep-08 01:00N 28°54' W 013°36'3 5.4
2017-Sep-08 00:25N 28°51' W 013°35'3 6.9
2017-Sep-07 23:59N 28°48' W 013°37'  
2017-Sep-05 11:50N 27°31' W 014°34'2 2.0
2017-Sep-05 10:52N 27°29' W 014°35'7 1.5
2017-Sep-05 05:53N 27°23' W 014°40'1 1.3
2017-Sep-05 05:29N 27°23' W 014°39'1 1.3
2017-Sep-05 04:49N 27°24' W 014°38'0 1.2
2017-Sep-05 04:30N 27°24' W 014°38'1 1.0
2017-Sep-05 03:59N 27°24' W 014°38'0 1.0
2017-Sep-05 03:30N 27°24' W 014°37'1 1.1
2017-Sep-05 03:00N 27°25' W 014°37'1 1.0
2017-Sep-05 02:22N 27°25' W 014°36'1 1.0
2017-Sep-05 01:43N 27°26' W 014°36'2 1.1
2017-Sep-05 00:01N 27°27' W 014°35'0 1.0
2017-Sep-05 00:00N 27°27' W 014°35'1 1.1
2017-Sep-04 23:25N 27°28' W 014°34'2 1.3
2017-Sep-04 21:45N 27°30' W 014°33'1 1.1
2017-Sep-04 20:35N 27°30' W 014°32'0 1.0
2017-Sep-04 20:18N 27°30' W 014°31'0 0.9
2017-Sep-04 20:00N 27°30' W 014°31'0 1.0
2017-Sep-04 19:30N 27°31' W 014°31'  
Track history (hours):
 
Tides and Currents Weather Stations Pressure Air Temp Water Temp Dewpoint Dewpoint Depression Visibility Wind Speed Wind Dir Waves Ship Positions

Ave Maria Segundo

Last reported at 2017-Sep-11 18:51 UTC. Time now 2017-Sep-20 18:36 UTC.
Position N 28°52' W 013°32'.
Warning: this ship's position is 8 days out of date.

Length 24 m; draft 0.3 m.

MMSI: 224156290.

Date/timePositionNaut miles runAvg speedWind from/ knotsBaromVisibWave heightAir tempDewpointWater temp
2017-Sep-11 18:51N 28°52' W 013°32'3 7.6
2017-Sep-11 18:28N 28°55' W 013°32'4 7.7
2017-Sep-11 18:00N 28°58' W 013°32'0 0.0
2017-Sep-11 08:29N 28°58' W 013°32'0 0.0
2017-Sep-11 07:59N 28°58' W 013°32'0 0.0
2017-Sep-11 07:29N 28°58' W 013°32'1 2.5
2017-Sep-11 06:59N 28°57' W 013°32'4 8.1
2017-Sep-11 06:26N 28°55' W 013°37'2 4.4
2017-Sep-11 05:56N 28°54' W 013°39'0 0.6
2017-Sep-11 05:30N 28°54' W 013°39'0 0.7
2017-Sep-11 05:00N 28°54' W 013°40'1 0.8
2017-Sep-11 03:46N 28°54' W 013°39'1 1.6
2017-Sep-11 03:02N 28°53' W 013°39'0 0.6
2017-Sep-11 02:57N 28°53' W 013°39'0 0.6
2017-Sep-11 02:24N 28°53' W 013°39'0 0.5
2017-Sep-11 01:50N 28°54' W 013°39'0 0.4
2017-Sep-11 01:28N 28°54' W 013°39'1 0.9
2017-Sep-11 00:23N 28°54' W 013°41'0 1.0
2017-Sep-10 23:59N 28°54' W 013°40'1 1.1
2017-Sep-10 23:24N 28°53' W 013°40'0 0.5
2017-Sep-10 22:39N 28°54' W 013°40'0 0.6
2017-Sep-10 22:29N 28°54' W 013°40'0 0.6
2017-Sep-10 22:00N 28°54' W 013°40'3 5.9
2017-Sep-10 21:28N 28°55' W 013°36'2 5.3
2017-Sep-10 21:00N 28°56' W 013°34'3 5.4
2017-Sep-10 20:30N 28°58' W 013°32'0 0.0
2017-Sep-10 20:00N 28°58' W 013°32'0 0.0
2017-Sep-10 11:45N 28°58' W 013°32'0 0.0
2017-Sep-09 08:04N 28°58' W 013°32'0 0.0
2017-Sep-09 08:00N 28°58' W 013°32'0 0.0
2017-Sep-08 12:07N 28°58' W 013°32'0 0.0
2017-Sep-08 12:00N 28°58' W 013°32'0 0.0
2017-Sep-08 11:08N 28°58' W 013°32'0 0.0
2017-Sep-08 11:00N 28°58' W 013°32'0 0.0
2017-Sep-08 10:30N 28°58' W 013°32'0 0.0
2017-Sep-08 10:00N 28°58' W 013°32'0 0.0
2017-Sep-08 09:30N 28°58' W 013°32'0 0.0
2017-Sep-08 09:00N 28°58' W 013°32'0 0.0
2017-Sep-08 08:30N 28°58' W 013°32'0 0.0
2017-Sep-08 08:00N 28°58' W 013°32'0 0.0
2017-Sep-08 07:30N 28°58' W 013°32'0 0.0
2017-Sep-08 06:59N 28°58' W 013°32'0 0.0
2017-Sep-08 06:30N 28°58' W 013°32'0 0.0
2017-Sep-08 06:00N 28°58' W 013°32'0 0.0
2017-Sep-08 05:28N 28°58' W 013°32'0 0.0
2017-Sep-08 04:58N 28°58' W 013°32'0 0.0
2017-Sep-08 04:29N 28°58' W 013°32'0 0.0
2017-Sep-08 03:59N 28°58' W 013°32'0 0.0
2017-Sep-08 03:30N 28°58' W 013°32'0 0.0
2017-Sep-08 02:59N 28°58' W 013°32'0 0.0
2017-Sep-08 02:28N 28°58' W 013°32'1 1.7
2017-Sep-08 01:58N 28°57' W 013°32'3 6.1
2017-Sep-08 01:30N 28°55' W 013°35'1 2.9
2017-Sep-08 01:00N 28°54' W 013°36'3 5.4
2017-Sep-08 00:25N 28°51' W 013°35'3 6.9
2017-Sep-07 23:59N 28°48' W 013°37'  
2017-Sep-05 11:50N 27°31' W 014°34'2 2.0
2017-Sep-05 10:52N 27°29' W 014°35'7 1.5
2017-Sep-05 05:53N 27°23' W 014°40'1 1.3
2017-Sep-05 05:29N 27°23' W 014°39'1 1.3
2017-Sep-05 04:49N 27°24' W 014°38'0 1.2
2017-Sep-05 04:30N 27°24' W 014°38'1 1.0
2017-Sep-05 03:59N 27°24' W 014°38'0 1.0
2017-Sep-05 03:30N 27°24' W 014°37'1 1.1
2017-Sep-05 03:00N 27°25' W 014°37'1 1.0
2017-Sep-05 02:22N 27°25' W 014°36'1 1.0
2017-Sep-05 01:43N 27°26' W 014°36'2 1.1
2017-Sep-05 00:01N 27°27' W 014°35'0 1.0
2017-Sep-05 00:00N 27°27' W 014°35'1 1.1
2017-Sep-04 23:25N 27°28' W 014°34'2 1.3
2017-Sep-04 21:45N 27°30' W 014°33'1 1.1
2017-Sep-04 20:35N 27°30' W 014°32'0 1.0
2017-Sep-04 20:18N 27°30' W 014°31'0 0.9
2017-Sep-04 20:00N 27°30' W 014°31'0 1.0
2017-Sep-04 19:30N 27°31' W 014°31'  

Dump ship's entire track history